Wetterdaten: Woche 20.02.12 - 26.02.12 (KW8)
Datum Zeit Temperatur Luftfeuchte Luftdruck Niederschlag Windrichtung Sonnenschein Solar Wind
20.02.2012 00:00 -3,0 C 85 % 1027,8 hPa 0,0 l/m N 0,00 h 0 W/m 0,5 km/h (0 Bft)
20.02.2012 01:00 -4,0 C 86 % 1028,4 hPa 0,0 l/m N 0,00 h 0 W/m 0,0 km/h (0 Bft)
20.02.2012 02:00 -4,8 C 88 % 1028,9 hPa 0,0 l/m N 0,00 h 0 W/m 0,3 km/h (0 Bft)
20.02.2012 03:00 -4,6 C 92 % 1029,3 hPa 0,0 l/m N 0,00 h 0 W/m 0,4 km/h (0 Bft)
20.02.2012 04:00 -3,8 C 94 % 1029,7 hPa 0,0 l/m O-NO 0,00 h 0 W/m 0,7 km/h (0 Bft)
20.02.2012 05:00 -3,4 C 93 % 1030,3 hPa 0,0 l/m N 0,00 h 0 W/m 1,2 km/h (1 Bft)
20.02.2012 06:00 -2,9 C 93 % 1030,7 hPa 0,0 l/m N 0,00 h 0 W/m 4,8 km/h (1 Bft)
20.02.2012 07:00 -2,7 C 91 % 1031,5 hPa 0,0 l/m N 0,00 h 10 W/m 3,9 km/h (1 Bft)
20.02.2012 08:00 -2,3 C 91 % 1032,1 hPa 0,0 l/m NO 0,00 h 34 W/m 5,1 km/h (1 Bft)
20.02.2012 09:00 -1,0 C 84 % 1032,7 hPa 0,0 l/m NO 0,00 h 83 W/m 5,1 km/h (1 Bft)
20.02.2012 10:00 0,1 C 74 % 1033,0 hPa 0,0 l/m NO 0,33 h 283 W/m 7,8 km/h (2 Bft)
20.02.2012 11:00 0,7 C 69 % 1033,3 hPa 0,0 l/m NO 0,42 h 336 W/m 11,3 km/h (2 Bft)
20.02.2012 12:00 1,7 C 66 % 1033,2 hPa 0,0 l/m N-NO 0,50 h 365 W/m 15,3 km/h (3 Bft)
20.02.2012 13:00 1,7 C 67 % 1033,0 hPa 0,0 l/m O 0,50 h 358 W/m 14,5 km/h (3 Bft)
20.02.2012 14:00 2,0 C 62 % 1032,7 hPa 0,0 l/m O 0,17 h 231 W/m 14,1 km/h (3 Bft)
20.02.2012 15:00 1,5 C 65 % 1032,7 hPa 0,0 l/m O 0,08 h 128 W/m 12,9 km/h (3 Bft)
20.02.2012 16:00 1,1 C 71 % 1032,6 hPa 0,0 l/m O 0,00 h 65 W/m 13,4 km/h (3 Bft)
20.02.2012 17:00 0,5 C 76 % 1032,6 hPa 0,0 l/m O-NO 0,08 h 19 W/m 10,2 km/h (2 Bft)
20.02.2012 18:00 -0,3 C 79 % 1032,7 hPa 0,0 l/m O 0,00 h 0 W/m 6,7 km/h (2 Bft)
20.02.2012 19:00 -1,1 C 84 % 1032,9 hPa 0,0 l/m O-NO 0,00 h 0 W/m 6,0 km/h (2 Bft)
20.02.2012 20:00 -1,6 C 85 % 1032,8 hPa 0,0 l/m NO 0,00 h 0 W/m 5,5 km/h (1 Bft)
20.02.2012 21:00 -2,1 C 86 % 1032,7 hPa 0,0 l/m O-NO 0,00 h 0 W/m 4,8 km/h (1 Bft)
20.02.2012 22:00 -2,9 C 86 % 1032,9 hPa 0,0 l/m N 0,00 h 0 W/m 2,7 km/h (1 Bft)
20.02.2012 23:00 -3,8 C 87 % 1032,7 hPa 0,0 l/m N 0,00 h 0 W/m 2,9 km/h (1 Bft)
21.02.2012 00:00 -4,8 C 88 % 1032,6 hPa 0,0 l/m O-NO 0,00 h 0 W/m 3,2 km/h (1 Bft)
21.02.2012 01:00 -5,4 C 90 % 1032,5 hPa 0,0 l/m N 0,00 h 0 W/m 3,1 km/h (1 Bft)
21.02.2012 02:00 -5,9 C 91 % 1032,3 hPa 0,0 l/m N 0,00 h 0 W/m 2,5 km/h (1 Bft)
21.02.2012 03:00 -6,2 C 92 % 1031,8 hPa 0,0 l/m N 0,00 h 0 W/m 3,1 km/h (1 Bft)
21.02.2012 04:00 -6,6 C 92 % 1031,4 hPa 0,0 l/m O-NO 0,00 h 0 W/m 2,5 km/h (1 Bft)
21.02.2012 05:00 -7,0 C 93 % 1031,7 hPa 0,0 l/m O-NO 0,00 h 0 W/m 2,0 km/h (1 Bft)
21.02.2012 06:00 -7,5 C 92 % 1031,6 hPa 0,0 l/m N 0,00 h 0 W/m 0,5 km/h (0 Bft)
21.02.2012 07:00 -8,0 C 93 % 1031,9 hPa 0,0 l/m N 0,17 h 17 W/m 1,9 km/h (1 Bft)
21.02.2012 08:00 -7,0 C 95 % 1032,4 hPa 0,0 l/m N 0,00 h 64 W/m 1,9 km/h (1 Bft)
21.02.2012 09:00 -6,0 C 95 % 1032,7 hPa 0,0 l/m NO 0,67 h 221 W/m 1,6 km/h (1 Bft)
21.02.2012 10:00 -4,1 C 94 % 1032,9 hPa 0,0 l/m S-SW 1,00 h 403 W/m 3,7 km/h (1 Bft)
21.02.2012 11:00 -2,1 C 85 % 1033,2 hPa 0,2 l/m SW 1,00 h 524 W/m 5,2 km/h (1 Bft)
21.02.2012 12:00 -0,3 C 76 % 1033,0 hPa 0,0 l/m SW 1,00 h 565 W/m 6,0 km/h (2 Bft)
21.02.2012 13:00 1,2 C 68 % 1032,5 hPa 0,0 l/m SW 1,00 h 560 W/m 6,1 km/h (2 Bft)
21.02.2012 14:00 2,6 C 61 % 1032,1 hPa 0,0 l/m SW 1,00 h 485 W/m 6,7 km/h (2 Bft)
21.02.2012 15:00 2,5 C 60 % 1032,1 hPa 0,0 l/m S-SW 1,00 h 386 W/m 6,7 km/h (2 Bft)
21.02.2012 16:00 2,1 C 61 % 1032,1 hPa 0,0 l/m S-SW 0,42 h 127 W/m 4,5 km/h (1 Bft)
21.02.2012 17:00 0,6 C 67 % 1032,4 hPa 0,0 l/m N 0,17 h 26 W/m 0,7 km/h (0 Bft)
21.02.2012 18:00 -0,9 C 76 % 1033,0 hPa 0,0 l/m N 0,00 h 0 W/m 0,0 km/h (0 Bft)
21.02.2012 19:00 -2,0 C 79 % 1033,4 hPa 0,0 l/m N 0,00 h 0 W/m 0,0 km/h (0 Bft)
21.02.2012 20:00 -3,1 C 83 % 1033,5 hPa 0,0 l/m N 0,00 h 0 W/m 0,0 km/h (0 Bft)
21.02.2012 21:00 -3,9 C 85 % 1033,6 hPa 0,0 l/m N 0,00 h 0 W/m 0,0 km/h (0 Bft)
21.02.2012 22:00 -4,6 C 86 % 1033,8 hPa 0,0 l/m N 0,00 h 0 W/m 0,0 km/h (0 Bft)
21.02.2012 23:00 -5,3 C 87 % 1034,0 hPa 0,0 l/m N 0,00 h 0 W/m 0,0 km/h (0 Bft)
22.02.2012 00:00 -5,8 C 88 % 1033,9 hPa 0,0 l/m N 0,00 h 0 W/m 0,0 km/h (0 Bft)
22.02.2012 01:00 -6,3 C 89 % 1033,6 hPa 0,0 l/m N 0,00 h 0 W/m 0,0 km/h (0 Bft)
22.02.2012 02:00 -6,7 C 89 % 1033,3 hPa 0,0 l/m N 0,00 h 0 W/m 0,7 km/h (0 Bft)
22.02.2012 03:00 -6,8 C 90 % 1033,0 hPa 0,0 l/m N 0,00 h 0 W/m 0,9 km/h (0 Bft)
22.02.2012 04:00 -6,6 C 92 % 1032,9 hPa 0,0 l/m N 0,00 h 0 W/m 1,3 km/h (1 Bft)
22.02.2012 05:00 -6,7 C 92 % 1033,0 hPa 0,0 l/m N 0,00 h 0 W/m 0,5 km/h (0 Bft)
22.02.2012 06:00 -7,1 C 91 % 1032,9 hPa 0,0 l/m N 0,00 h 0 W/m 0,8 km/h (0 Bft)
22.02.2012 07:00 -7,1 C 92 % 1032,9 hPa 0,0 l/m S-SW 0,00 h 14 W/m 2,5 km/h (1 Bft)
22.02.2012 08:00 -6,0 C 94 % 1032,8 hPa 0,0 l/m W-NW 0,42 h 90 W/m 5,1 km/h (1 Bft)
22.02.2012 09:00 -3,0 C 88 % 1032,6 hPa 0,0 l/m N-NW 1,00 h 279 W/m 7,6 km/h (2 Bft)
22.02.2012 10:00 -0,6 C 79 % 1032,7 hPa 0,0 l/m N 1,00 h 427 W/m 8,8 km/h (2 Bft)
22.02.2012 11:00 1,3 C 71 % 1032,3 hPa 0,0 l/m N-NO 1,00 h 532 W/m 7,1 km/h (2 Bft)
22.02.2012 12:00 3,3 C 63 % 1031,4 hPa 0,0 l/m N-NO 1,00 h 572 W/m 6,9 km/h (2 Bft)
22.02.2012 13:00 4,7 C 58 % 1030,2 hPa 0,0 l/m O-NO 1,00 h 555 W/m 9,9 km/h (2 Bft)
22.02.2012 14:00 5,6 C 56 % 1029,4 hPa 0,0 l/m NO 1,00 h 477 W/m 8,3 km/h (2 Bft)
22.02.2012 15:00 5,9 C 56 % 1028,9 hPa 0,0 l/m O-NO 1,00 h 356 W/m 6,9 km/h (2 Bft)
22.02.2012 16:00 5,5 C 58 % 1028,6 hPa 0,0 l/m N-NO 1,00 h 190 W/m 8,5 km/h (2 Bft)
22.02.2012 17:00 3,4 C 68 % 1028,4 hPa 0,0 l/m N-NO 0,33 h 30 W/m 3,2 km/h (1 Bft)
22.02.2012 18:00 0,8 C 78 % 1028,6 hPa 0,0 l/m N-NO 0,00 h 0 W/m 2,3 km/h (1 Bft)
22.02.2012 19:00 -0,6 C 83 % 1029,0 hPa 0,0 l/m N-NO 0,00 h 0 W/m 2,8 km/h (1 Bft)
22.02.2012 20:00 -1,7 C 87 % 1028,9 hPa 0,0 l/m N 0,00 h 0 W/m 0,0 km/h (0 Bft)
22.02.2012 21:00 -2,4 C 89 % 1028,9 hPa 0,0 l/m N 0,00 h 0 W/m 0,0 km/h (0 Bft)
22.02.2012 22:00 -3,1 C 91 % 1028,8 hPa 0,0 l/m N-NO 0,00 h 0 W/m 0,7 km/h (0 Bft)
22.02.2012 23:00 -3,4 C 91 % 1028,1 hPa 0,0 l/m N-NO 0,00 h 0 W/m 3,5 km/h (1 Bft)
23.02.2012 00:00 -3,2 C 92 % 1027,9 hPa 0,0 l/m N-NO 0,00 h 0 W/m 5,2 km/h (1 Bft)
23.02.2012 01:00 -3,0 C 93 % 1028,0 hPa 0,0 l/m N-NO 0,00 h 0 W/m 3,5 km/h (1 Bft)
23.02.2012 02:00 -3,5 C 93 % 1027,8 hPa 0,0 l/m N-NO 0,00 h 0 W/m 3,3 km/h (1 Bft)
23.02.2012 03:00 -3,8 C 93 % 1027,3 hPa 0,0 l/m N-NO 0,00 h 0 W/m 6,2 km/h (2 Bft)
23.02.2012 04:00 -3,0 C 95 % 1026,7 hPa 0,0 l/m S 0,00 h 0 W/m 10,5 km/h (2 Bft)
23.02.2012 05:00 -2,4 C 95 % 1026,6 hPa 0,0 l/m S-SW 0,00 h 0 W/m 9,5 km/h (2 Bft)
23.02.2012 06:00 -2,0 C 95 % 1027,0 hPa 0,0 l/m S 0,00 h 0 W/m 6,3 km/h (2 Bft)
23.02.2012 07:00 -1,6 C 94 % 1027,2 hPa 0,0 l/m S-SW 0,00 h 11 W/m 8,3 km/h (2 Bft)
23.02.2012 08:00 -0,9 C 92 % 1027,4 hPa 0,0 l/m S-SO 0,00 h 37 W/m 8,4 km/h (2 Bft)
23.02.2012 09:00 0,2 C 87 % 1027,2 hPa 0,0 l/m S 0,00 h 45 W/m 10,5 km/h (2 Bft)
23.02.2012 10:00 0,8 C 85 % 1027,4 hPa 0,0 l/m S-SO 0,00 h 102 W/m 9,9 km/h (2 Bft)
23.02.2012 11:00 2,0 C 82 % 1027,4 hPa 0,0 l/m S-SW 0,00 h 145 W/m 8,3 km/h (2 Bft)
23.02.2012 12:00 2,9 C 76 % 1027,2 hPa 0,0 l/m S-SW 0,00 h 159 W/m 13,0 km/h (3 Bft)
23.02.2012 13:00 3,7 C 71 % 1026,8 hPa 0,0 l/m S 0,00 h 142 W/m 11,0 km/h (2 Bft)
23.02.2012 14:00 4,2 C 70 % 1027,0 hPa 0,0 l/m S 0,00 h 127 W/m 12,0 km/h (2 Bft)
23.02.2012 15:00 3,8 C 76 % 1027,3 hPa 0,0 l/m SW 0,00 h 91 W/m 14,1 km/h (3 Bft)
23.02.2012 16:00 3,5 C 84 % 1027,6 hPa 0,0 l/m S-SW 0,00 h 77 W/m 10,6 km/h (2 Bft)
23.02.2012 17:00 3,6 C 79 % 1027,7 hPa 0,0 l/m S-SW 0,08 h 28 W/m 13,0 km/h (3 Bft)
23.02.2012 18:00 3,1 C 81 % 1028,5 hPa 0,0 l/m S-SW 0,00 h 0 W/m 8,2 km/h (2 Bft)
23.02.2012 19:00 3,0 C 86 % 1028,9 hPa 0,0 l/m S-SW 0,00 h 0 W/m 8,3 km/h (2 Bft)
23.02.2012 20:00 3,2 C 89 % 1029,4 hPa 0,0 l/m S-SW 0,00 h 0 W/m 9,0 km/h (2 Bft)
23.02.2012 21:00 3,2 C 91 % 1029,7 hPa 0,0 l/m S-SW 0,00 h 0 W/m 9,1 km/h (2 Bft)
23.02.2012 22:00 3,2 C 91 % 1029,6 hPa 0,0 l/m SW 0,00 h 0 W/m 9,1 km/h (2 Bft)
23.02.2012 23:00 2,9 C 91 % 1029,4 hPa 0,0 l/m SW 0,00 h 0 W/m 8,3 km/h (2 Bft)
24.02.2012 00:00 2,6 C 91 % 1029,4 hPa 0,0 l/m SW 0,00 h 0 W/m 9,1 km/h (2 Bft)
24.02.2012 01:00 2,3 C 91 % 1029,4 hPa 0,0 l/m SW 0,00 h 0 W/m 7,4 km/h (2 Bft)
24.02.2012 02:00 2,1 C 91 % 1029,4 hPa 0,0 l/m W-SW 0,00 h 0 W/m 5,7 km/h (1 Bft)
24.02.2012 03:00 1,9 C 91 % 1029,4 hPa 0,0 l/m N 0,00 h 0 W/m 1,1 km/h (0 Bft)
24.02.2012 04:00 1,6 C 92 % 1029,2 hPa 0,0 l/m W-SW 0,00 h 0 W/m 3,6 km/h (1 Bft)
24.02.2012 05:00 2,1 C 94 % 1029,0 hPa 0,0 l/m S 0,00 h 0 W/m 7,9 km/h (2 Bft)
24.02.2012 06:00 1,7 C 93 % 1028,6 hPa 0,0 l/m SW 0,00 h 0 W/m 7,2 km/h (2 Bft)
24.02.2012 07:00 1,1 C 93 % 1028,8 hPa 0,0 l/m SW 0,08 h 16 W/m 5,9 km/h (2 Bft)
24.02.2012 08:00 1,3 C 94 % 1029,2 hPa 0,0 l/m S-SW 0,42 h 93 W/m 6,5 km/h (2 Bft)
24.02.2012 09:00 2,8 C 93 % 1029,2 hPa 0,0 l/m S-SW 1,00 h 255 W/m 8,6 km/h (2 Bft)
24.02.2012 10:00 4,6 C 89 % 1029,1 hPa 0,0 l/m S-SW 1,00 h 422 W/m 10,2 km/h (2 Bft)
24.02.2012 11:00 6,6 C 82 % 1028,9 hPa 0,0 l/m S-SW 1,00 h 523 W/m 12,6 km/h (3 Bft)
24.02.2012 12:00 8,1 C 77 % 1028,3 hPa 0,0 l/m S-SW 1,00 h 562 W/m 13,8 km/h (3 Bft)
24.02.2012 13:00 9,6 C 72 % 1027,6 hPa 0,0 l/m S-SW 1,00 h 548 W/m 13,6 km/h (3 Bft)
24.02.2012 14:00 10,4 C 70 % 1027,2 hPa 0,0 l/m S-SW 1,00 h 482 W/m 13,8 km/h (3 Bft)
24.02.2012 15:00 10,2 C 71 % 1026,8 hPa 0,0 l/m S-SW 0,42 h 225 W/m 12,1 km/h (2 Bft)
24.02.2012 16:00 10,6 C 71 % 1026,1 hPa 0,0 l/m S 0,58 h 202 W/m 10,9 km/h (2 Bft)
24.02.2012 17:00 8,9 C 76 % 1026,1 hPa 0,0 l/m S-SW 0,00 h 19 W/m 5,6 km/h (1 Bft)
24.02.2012 18:00 6,4 C 82 % 1026,4 hPa 0,0 l/m S 0,00 h 0 W/m 2,7 km/h (1 Bft)
24.02.2012 19:00 5,4 C 85 % 1026,4 hPa 0,0 l/m S 0,00 h 0 W/m 3,3 km/h (1 Bft)
24.02.2012 20:00 5,0 C 87 % 1026,5 hPa 0,0 l/m N 0,00 h 0 W/m 1,5 km/h (1 Bft)
24.02.2012 21:00 4,8 C 88 % 1026,6 hPa 0,0 l/m N 0,00 h 0 W/m 0,4 km/h (0 Bft)
24.02.2012 22:00 3,8 C 90 % 1026,7 hPa 0,0 l/m N 0,00 h 0 W/m 0,4 km/h (0 Bft)
24.02.2012 23:00 3,6 C 91 % 1026,7 hPa 0,0 l/m N 0,00 h 0 W/m 0,8 km/h (0 Bft)
25.02.2012 00:00 3,7 C 91 % 1026,6 hPa 0,0 l/m N 0,00 h 0 W/m 0,7 km/h (0 Bft)
25.02.2012 01:00 3,8 C 91 % 1026,2 hPa 0,0 l/m N 0,00 h 0 W/m 1,2 km/h (1 Bft)
25.02.2012 02:00 3,7 C 91 % 1026,8 hPa 0,0 l/m S-SW 0,00 h 0 W/m 1,6 km/h (1 Bft)
25.02.2012 03:00 3,3 C 92 % 1026,4 hPa 0,0 l/m N 0,00 h 0 W/m 0,8 km/h (0 Bft)
25.02.2012 04:00 3,2 C 92 % 1025,9 hPa 0,0 l/m N 0,00 h 0 W/m 0,3 km/h (0 Bft)
25.02.2012 05:00 2,9 C 93 % 1025,6 hPa 0,0 l/m S-SW 0,00 h 0 W/m 3,7 km/h (1 Bft)
25.02.2012 06:00 2,6 C 94 % 1025,4 hPa 0,0 l/m N 0,00 h 0 W/m 0,3 km/h (0 Bft)
25.02.2012 07:00 2,7 C 95 % 1025,3 hPa 0,0 l/m N 0,00 h 12 W/m 0,4 km/h (0 Bft)
25.02.2012 08:00 3,1 C 95 % 1025,2 hPa 0,0 l/m N 0,00 h 38 W/m 0,0 km/h (0 Bft)
25.02.2012 09:00 4,9 C 93 % 1024,7 hPa 0,0 l/m N 0,00 h 111 W/m 1,1 km/h (0 Bft)
25.02.2012 10:00 6,6 C 89 % 1024,4 hPa 0,0 l/m NW 0,00 h 108 W/m 3,7 km/h (1 Bft)
25.02.2012 11:00 6,9 C 88 % 1024,6 hPa 0,0 l/m NW 0,00 h 86 W/m 4,5 km/h (1 Bft)
25.02.2012 12:00 7,3 C 87 % 1024,0 hPa 0,0 l/m NW 0,00 h 124 W/m 2,8 km/h (1 Bft)
25.02.2012 13:00 8,0 C 85 % 1022,9 hPa 0,0 l/m W-NW 0,08 h 141 W/m 6,0 km/h (2 Bft)
25.02.2012 14:00 8,0 C 86 % 1022,5 hPa 0,0 l/m W 0,00 h 128 W/m 5,9 km/h (2 Bft)
25.02.2012 15:00 8,0 C 87 % 1022,0 hPa 0,0 l/m W-SW 0,08 h 135 W/m 9,4 km/h (2 Bft)
25.02.2012 16:00 7,6 C 87 % 1021,5 hPa 0,0 l/m SW 0,33 h 106 W/m 9,0 km/h (2 Bft)
25.02.2012 17:00 6,8 C 88 % 1021,1 hPa 0,0 l/m SW 0,08 h 26 W/m 10,5 km/h (2 Bft)
25.02.2012 18:00 6,2 C 89 % 1021,1 hPa 0,0 l/m SW 0,00 h 5 W/m 7,5 km/h (2 Bft)
25.02.2012 19:00 5,7 C 91 % 1021,1 hPa 0,0 l/m SW 0,00 h 0 W/m 8,3 km/h (2 Bft)
25.02.2012 20:00 5,3 C 92 % 1021,3 hPa 0,0 l/m SW 0,00 h 0 W/m 2,9 km/h (1 Bft)
25.02.2012 21:00 4,9 C 93 % 1021,3 hPa 0,0 l/m SW 0,00 h 0 W/m 4,7 km/h (1 Bft)
25.02.2012 22:00 4,2 C 93 % 1021,1 hPa 0,0 l/m N 0,00 h 0 W/m 0,7 km/h (0 Bft)
25.02.2012 23:00 4,1 C 95 % 1020,8 hPa 0,0 l/m W-SW 0,00 h 0 W/m 7,0 km/h (2 Bft)
26.02.2012 00:00 4,9 C 96 % 1020,4 hPa 0,2 l/m W 0,00 h 0 W/m 7,9 km/h (2 Bft)
26.02.2012 01:00 4,8 C 95 % 1019,8 hPa 0,0 l/m W 0,00 h 0 W/m 7,2 km/h (2 Bft)
26.02.2012 02:00 4,6 C 96 % 1019,4 hPa 0,0 l/m W 0,00 h 0 W/m 6,7 km/h (2 Bft)
26.02.2012 03:00 4,3 C 96 % 1019,3 hPa 0,2 l/m W 0,00 h 0 W/m 10,3 km/h (2 Bft)
26.02.2012 04:00 3,1 C 94 % 1019,7 hPa 0,2 l/m N 0,00 h 0 W/m 14,2 km/h (3 Bft)
26.02.2012 05:00 2,4 C 93 % 1019,8 hPa 0,0 l/m N 0,00 h 0 W/m 8,9 km/h (2 Bft)
26.02.2012 06:00 1,9 C 94 % 1020,2 hPa 0,0 l/m N 0,00 h 0 W/m 7,8 km/h (2 Bft)
26.02.2012 07:00 1,7 C 94 % 1020,8 hPa 0,0 l/m NW 0,00 h 11 W/m 5,6 km/h (1 Bft)
26.02.2012 08:00 1,8 C 94 % 1021,7 hPa 0,0 l/m NW 0,00 h 31 W/m 4,7 km/h (1 Bft)
26.02.2012 09:00 2,4 C 90 % 1022,3 hPa 0,0 l/m N-NW 0,00 h 67 W/m 7,1 km/h (2 Bft)
26.02.2012 10:00 2,6 C 86 % 1022,8 hPa 0,0 l/m N-NW 0,00 h 82 W/m 10,4 km/h (2 Bft)
26.02.2012 11:00 2,9 C 83 % 1023,3 hPa 0,0 l/m N-NW 0,00 h 81 W/m 6,7 km/h (2 Bft)
26.02.2012 12:00 2,9 C 82 % 1023,7 hPa 0,0 l/m N-NW 0,00 h 74 W/m 7,1 km/h (2 Bft)
26.02.2012 13:00 3,9 C 78 % 1023,6 hPa 0,0 l/m W-NW 0,00 h 163 W/m 9,7 km/h (2 Bft)
26.02.2012 14:00 3,7 C 79 % 1023,9 hPa 0,0 l/m W 0,00 h 60 W/m 8,3 km/h (2 Bft)
26.02.2012 15:00 4,0 C 76 % 1023,9 hPa 0,0 l/m W 0,00 h 114 W/m 11,9 km/h (2 Bft)
26.02.2012 16:00 3,6 C 77 % 1024,1 hPa 0,0 l/m SW 0,00 h 20 W/m 9,9 km/h (2 Bft)
26.02.2012 17:00 3,0 C 80 % 1024,4 hPa 0,0 l/m W 0,00 h 8 W/m 9,9 km/h (2 Bft)
26.02.2012 18:00 2,0 C 86 % 1024,8 hPa 0,0 l/m W 0,00 h 0 W/m 9,0 km/h (2 Bft)
26.02.2012 19:00 1,7 C 87 % 1025,2 hPa 0,0 l/m W 0,00 h 0 W/m 6,6 km/h (2 Bft)
26.02.2012 20:00 2,0 C 89 % 1025,8 hPa 0,2 l/m W 0,00 h 0 W/m 11,0 km/h (2 Bft)
26.02.2012 21:00 2,0 C 91 % 1026,7 hPa 0,2 l/m W-NW 0,00 h 0 W/m 6,4 km/h (2 Bft)
26.02.2012 22:00 1,5 C 92 % 1027,0 hPa 0,4 l/m W 0,00 h 0 W/m 3,7 km/h (1 Bft)
26.02.2012 23:00 0,9 C 93 % 1027,1 hPa 0,2 l/m N 0,00 h 0 W/m 2,4 km/h (1 Bft)
Min-Datum _ 21.02.12 22.02.12 26.02.12 - - - - 20.02.12
_ Min-Zeit 07:25 15:00 03:15 - - - - 00:00
Minimum _ -8,1 C 54 % 1019,1 hPa - - - - 0,0 km/h (0 Bft)
Max-Datum _ 24.02.12 26.02.12 21.02.12 26.02.12 - 20.02.12 20.02.12 26.02.12
_ Max-Zeit 16:15 00:45 23:35 22:30 - 10:20 12:05 03:50
Maximum _ 11,1 C 100 % 1034,1 hPa 0,4 l/m - 0,08 h 717 W/m 27,4 km/h
W (4 Bft)
Durchschnitt _ 1,0 C 85 % 1028,2 hPa #1,8 l/m SW #26:25 h 190 W/m 5,8 km/h (1 Bft)